createdAt,value
2022-07-26T00:01:36.388Z,0.90
2022-07-26T00:04:02.845Z,0.93
2022-07-26T00:06:29.409Z,0.70
2022-07-26T00:08:55.872Z,0.90
2022-07-26T00:11:22.863Z,0.95
2022-07-26T00:13:51.842Z,0.90
2022-07-26T00:16:20.659Z,1.05
2022-07-26T00:18:47.764Z,1.02
2022-07-26T00:21:14.200Z,0.77
2022-07-26T00:23:40.679Z,0.80
2022-07-26T00:26:07.186Z,0.80
2022-07-26T00:28:36.464Z,0.80
2022-07-26T00:31:03.272Z,0.80
2022-07-26T00:33:34.294Z,1.13
2022-07-26T00:36:01.256Z,0.85
2022-07-26T00:38:30.105Z,1.00
2022-07-26T00:40:59.364Z,0.90
2022-07-26T00:43:25.823Z,0.75
2022-07-26T00:45:52.271Z,0.93
2022-07-26T00:48:18.754Z,0.70
2022-07-26T00:50:48.326Z,0.90
2022-07-26T00:53:14.767Z,0.82
2022-07-26T00:55:41.185Z,0.88
2022-07-26T00:58:07.636Z,0.70
2022-07-26T01:00:34.078Z,0.88
2022-07-26T01:03:00.655Z,0.85
2022-07-26T01:05:27.715Z,0.88
2022-07-26T01:07:54.267Z,0.50
2022-07-26T01:10:23.068Z,0.70
2022-07-26T01:12:52.114Z,0.60
2022-07-26T01:15:21.827Z,0.50
2022-07-26T01:17:50.556Z,0.80
2022-07-26T01:20:19.468Z,0.70
2022-07-26T01:22:45.942Z,0.90
2022-07-26T01:25:12.384Z,0.73
2022-07-26T01:27:44.170Z,0.90
2022-07-26T01:30:16.782Z,0.80
2022-07-26T01:32:43.229Z,0.80
2022-07-26T01:35:12.609Z,0.80
2022-07-26T01:37:39.078Z,0.60
2022-07-26T01:40:06.177Z,0.60
2022-07-26T01:42:33.769Z,0.65
2022-07-26T01:45:00.203Z,0.70
2022-07-26T01:47:26.845Z,0.70
2022-07-26T01:49:53.755Z,0.80
2022-07-26T01:52:20.233Z,0.80
2022-07-26T01:54:46.725Z,0.57
2022-07-26T01:57:15.653Z,0.55
2022-07-26T01:59:44.356Z,0.50
2022-07-26T02:02:10.870Z,0.70
2022-07-26T02:04:58.665Z,0.40
2022-07-26T02:07:29.252Z,0.80
2022-07-26T02:09:56.511Z,0.60
2022-07-26T02:12:24.537Z,0.63
2022-07-26T02:14:51.488Z,0.50
2022-07-26T02:17:22.775Z,0.60
2022-07-26T02:19:49.204Z,0.70
2022-07-26T02:22:15.955Z,0.52
2022-07-26T02:24:42.358Z,0.65
2022-07-26T02:27:08.990Z,0.40
2022-07-26T02:29:36.031Z,0.55
2022-07-26T02:32:05.450Z,0.50
2022-07-26T02:34:33.963Z,0.60
2022-07-26T02:37:05.507Z,0.60
2022-07-26T02:39:31.944Z,0.57
2022-07-26T02:42:02.385Z,0.70
2022-07-26T02:44:29.411Z,0.80
2022-07-26T02:46:56.050Z,0.70
2022-07-26T02:49:25.048Z,0.63
2022-07-26T02:51:52.178Z,0.73
2022-07-26T02:54:18.617Z,0.90
2022-07-26T02:56:45.059Z,0.65
2022-07-26T02:59:11.504Z,0.98
2022-07-26T03:01:40.387Z,0.60
2022-07-26T03:04:11.769Z,0.80
2022-07-26T03:06:40.607Z,0.90
2022-07-26T03:09:09.629Z,0.80
2022-07-26T03:11:41.047Z,0.73
2022-07-26T03:14:09.152Z,0.60
2022-07-26T03:16:38.129Z,0.77
2022-07-26T03:19:04.604Z,0.70
2022-07-26T03:21:33.337Z,0.77
2022-07-26T03:24:01.953Z,0.65
2022-07-26T03:26:29.292Z,0.60
2022-07-26T03:28:56.201Z,0.68
2022-07-26T03:31:23.500Z,0.50
2022-07-26T03:33:50.012Z,0.50
2022-07-26T03:36:18.759Z,0.57
2022-07-26T03:38:45.132Z,0.70
2022-07-26T03:41:13.702Z,0.60
2022-07-26T03:43:40.435Z,0.75
2022-07-26T03:46:06.950Z,0.80
2022-07-26T03:48:33.469Z,0.80
2022-07-26T03:51:00.174Z,0.80
2022-07-26T03:53:26.626Z,0.80
2022-07-26T03:56:11.526Z,0.93
2022-07-26T03:58:40.789Z,0.63
2022-07-26T04:01:07.213Z,1.05
2022-07-26T04:03:36.098Z,0.75
2022-07-26T04:06:02.708Z,0.63
2022-07-26T04:08:34.899Z,0.80
2022-07-26T04:11:01.397Z,0.80
2022-07-26T04:13:30.424Z,0.95
2022-07-26T04:15:59.326Z,0.82
2022-07-26T04:18:27.818Z,1.00
2022-07-26T04:20:56.852Z,0.90
2022-07-26T04:23:23.437Z,1.08
2022-07-26T04:25:54.765Z,1.20
2022-07-26T04:28:21.368Z,0.90
2022-07-26T04:30:47.975Z,0.93
2022-07-26T04:33:14.474Z,1.05
2022-07-26T04:35:41.582Z,0.95
2022-07-26T04:38:08.080Z,0.85
2022-07-26T04:40:34.574Z,1.00
2022-07-26T04:43:07.486Z,0.98
2022-07-26T04:45:38.862Z,0.95
2022-07-26T04:48:06.456Z,0.70
2022-07-26T04:50:32.919Z,1.10
2022-07-26T04:52:59.371Z,1.00
2022-07-26T04:55:25.800Z,0.82
2022-07-26T04:57:54.522Z,0.88
2022-07-26T05:00:24.185Z,0.80
2022-07-26T05:02:54.492Z,1.08
2022-07-26T05:05:24.303Z,0.95
2022-07-26T05:07:56.276Z,0.93
2022-07-26T05:10:28.770Z,1.00
2022-07-26T05:12:55.270Z,1.10
2022-07-26T05:15:21.737Z,1.05
2022-07-26T05:17:49.144Z,0.90
2022-07-26T05:20:16.379Z,1.20
2022-07-26T05:22:43.076Z,0.80
2022-07-26T05:25:12.082Z,1.05
2022-07-26T05:27:40.358Z,1.10
2022-07-26T05:30:07.779Z,1.00
2022-07-26T05:32:34.217Z,1.00
2022-07-26T05:35:02.996Z,1.45
2022-07-26T05:37:29.424Z,1.15
2022-07-26T05:39:55.866Z,1.38
2022-07-26T05:42:22.431Z,1.20
2022-07-26T05:44:48.851Z,1.13
2022-07-26T05:47:16.065Z,1.50
2022-07-26T05:49:44.562Z,1.30
2022-07-26T05:52:11.055Z,1.52
2022-07-26T05:54:39.844Z,1.15
2022-07-26T05:57:06.335Z,1.65
2022-07-26T05:59:32.780Z,1.38
2022-07-26T06:02:01.888Z,1.55
2022-07-26T06:04:28.505Z,1.52
2022-07-26T06:06:55.234Z,1.30
2022-07-26T06:09:27.630Z,1.50
2022-07-26T06:11:56.696Z,1.60
2022-07-26T06:14:25.690Z,1.27
2022-07-26T06:16:52.184Z,1.52
2022-07-26T06:19:18.689Z,1.27
2022-07-26T06:21:47.365Z,1.38
2022-07-26T06:24:16.288Z,1.30
2022-07-26T06:26:42.825Z,1.33
2022-07-26T06:29:09.276Z,1.00
2022-07-26T06:31:35.765Z,1.35
2022-07-26T06:34:02.278Z,1.10
2022-07-26T06:36:30.851Z,1.10
2022-07-26T06:38:58.231Z,1.20
2022-07-26T06:41:30.275Z,1.08
2022-07-26T06:43:56.784Z,1.00
2022-07-26T06:46:28.142Z,1.10
2022-07-26T06:48:57.038Z,0.90
2022-07-26T06:51:24.222Z,0.90
2022-07-26T06:53:54.047Z,0.88
2022-07-26T06:56:20.717Z,0.95
2022-07-26T06:58:55.136Z,1.00
2022-07-26T07:01:58.580Z,0.77
2022-07-26T07:04:10.832Z,0.68
2022-07-26T07:06:37.641Z,0.60
2022-07-26T07:09:08.937Z,0.60
2022-07-26T07:11:36.106Z,0.60
2022-07-26T07:14:03.230Z,0.60
2022-07-26T07:16:29.800Z,0.80
2022-07-26T07:18:56.329Z,0.70
2022-07-26T07:21:27.315Z,0.60
2022-07-26T07:23:53.783Z,0.68
2022-07-26T07:26:20.301Z,0.60
2022-07-26T07:28:46.748Z,0.60
2022-07-26T07:31:15.264Z,0.40
2022-07-26T07:33:52.888Z,0.65
2022-07-26T07:36:22.941Z,0.50
2022-07-26T07:38:51.735Z,0.65
2022-07-26T07:41:18.868Z,0.80
2022-07-26T07:43:45.338Z,0.50
2022-07-26T07:46:16.590Z,1.00
2022-07-26T07:48:47.294Z,0.85
2022-07-26T07:51:16.388Z,0.73
2022-07-26T07:53:56.971Z,0.75
2022-07-26T07:56:24.555Z,0.60
2022-07-26T07:58:55.793Z,0.60
2022-07-26T08:01:22.288Z,0.90
2022-07-26T08:03:50.515Z,0.60
2022-07-26T08:06:17.459Z,0.65
2022-07-26T08:08:44.016Z,0.70
2022-07-26T08:11:10.574Z,1.08
2022-07-26T08:13:39.049Z,0.77
2022-07-26T08:16:09.592Z,0.70
2022-07-26T08:18:36.456Z,0.60
2022-07-26T08:21:08.486Z,0.80
2022-07-26T08:23:37.458Z,0.82
2022-07-26T08:26:06.799Z,0.65
2022-07-26T08:28:58.453Z,0.68
2022-07-26T08:31:25.648Z,0.65
2022-07-26T08:33:54.628Z,0.90
2022-07-26T08:36:21.112Z,0.70
2022-07-26T08:38:48.340Z,0.73
2022-07-26T08:41:16.716Z,0.80
2022-07-26T08:43:51.653Z,0.63
2022-07-26T08:46:25.429Z,0.80
2022-07-26T08:48:53.150Z,0.60
2022-07-26T08:51:20.585Z,0.82
2022-07-26T08:53:47.690Z,1.00
2022-07-26T08:56:14.227Z,0.70
2022-07-26T08:58:42.050Z,0.60
2022-07-26T09:01:13.966Z,0.55
2022-07-26T09:03:41.704Z,0.60
2022-07-26T09:06:12.166Z,0.60
2022-07-26T09:08:40.847Z,0.70
2022-07-26T09:11:27.430Z,0.73
2022-07-26T09:13:59.286Z,0.80
2022-07-26T09:16:28.630Z,0.70
2022-07-26T09:18:56.085Z,0.85
2022-07-26T09:21:29.992Z,0.60
2022-07-26T09:23:56.737Z,0.50
2022-07-26T09:26:28.319Z,0.55
2022-07-26T09:29:03.844Z,0.70
2022-07-26T09:31:32.503Z,0.80
2022-07-26T09:34:04.871Z,0.73
2022-07-26T09:36:33.756Z,0.60
2022-07-26T09:39:02.962Z,0.60
2022-07-26T09:41:33.709Z,0.63
2022-07-26T09:44:04.860Z,0.65
2022-07-26T09:46:32.773Z,0.50
2022-07-26T09:49:16.778Z,0.60
2022-07-26T09:51:45.962Z,0.60
2022-07-26T09:54:18.504Z,0.80
2022-07-26T09:56:52.364Z,0.85
2022-07-26T09:59:21.695Z,0.77
2022-07-26T10:01:49.492Z,0.77
2022-07-26T10:04:16.578Z,0.57
2022-07-26T10:06:45.769Z,0.65
2022-07-26T10:09:13.262Z,0.68
2022-07-26T10:12:02.556Z,0.60
2022-07-26T10:14:38.052Z,0.73
2022-07-26T10:17:31.720Z,0.65
2022-07-26T10:20:16.828Z,0.60
2022-07-26T10:22:51.407Z,0.63
2022-07-26T10:25:17.798Z,0.50
2022-07-26T10:27:45.162Z,0.70
2022-07-26T10:30:17.603Z,0.57
2022-07-26T10:33:03.441Z,0.70
2022-07-26T10:35:30.116Z,0.80
2022-07-26T10:38:29.367Z,0.70
2022-07-26T10:41:04.030Z,0.60
2022-07-26T10:43:45.814Z,0.60
2022-07-26T10:46:20.657Z,0.80
2022-07-26T10:49:04.563Z,0.63
2022-07-26T10:51:36.817Z,0.50
2022-07-26T10:54:08.983Z,0.50
2022-07-26T10:56:39.040Z,0.60
2022-07-26T10:59:08.235Z,0.60
2022-07-26T11:01:35.492Z,0.40
2022-07-26T11:04:02.526Z,0.55
2022-07-26T11:06:31.952Z,0.60
2022-07-26T11:08:58.493Z,0.70
2022-07-26T11:11:32.062Z,0.40
2022-07-26T11:14:13.378Z,0.70
2022-07-26T11:16:52.325Z,0.55
2022-07-26T11:19:27.466Z,0.55
2022-07-26T11:21:55.782Z,0.60
2022-07-26T11:24:22.352Z,0.40
2022-07-26T11:26:49.009Z,0.40
2022-07-26T11:29:17.628Z,0.60
2022-07-26T11:31:51.457Z,0.70
2022-07-26T11:34:33.289Z,0.43
2022-07-26T11:37:04.112Z,0.75
2022-07-26T11:39:32.778Z,0.60
2022-07-26T11:42:08.988Z,0.73
2022-07-26T11:44:36.340Z,0.47
2022-07-26T11:47:12.632Z,0.55
2022-07-26T11:50:00.233Z,0.57
2022-07-26T11:52:32.054Z,0.70
2022-07-26T11:54:59.249Z,0.60
2022-07-26T11:57:33.188Z,0.70
2022-07-26T12:00:05.873Z,0.57
2022-07-26T12:02:34.409Z,0.65
2022-07-26T12:05:21.686Z,0.60
2022-07-26T12:08:04.900Z,0.60
2022-07-26T12:10:31.826Z,0.63
2022-07-26T12:13:15.010Z,0.63
2022-07-26T12:15:49.135Z,1.42
2022-07-26T12:18:26.894Z,0.65
2022-07-26T12:21:11.340Z,0.60
2022-07-26T12:23:41.268Z,0.50
2022-07-26T12:26:28.284Z,0.50
2022-07-26T12:28:57.120Z,0.60
2022-07-26T12:31:30.689Z,0.70
2022-07-26T12:33:57.759Z,0.50
2022-07-26T12:36:28.249Z,0.40
2022-07-26T12:39:01.553Z,0.63
2022-07-26T12:41:43.034Z,0.70
2022-07-26T12:44:13.187Z,0.60
2022-07-26T12:46:40.082Z,0.63
2022-07-26T12:49:06.660Z,0.68
2022-07-26T12:51:33.740Z,0.63
2022-07-26T12:54:06.341Z,0.60
2022-07-26T12:56:35.435Z,0.60
2022-07-26T12:59:10.902Z,0.93
2022-07-26T13:01:44.079Z,0.70
2022-07-26T13:04:10.861Z,0.70
2022-07-26T13:06:37.512Z,0.57
2022-07-26T13:09:04.045Z,0.52
2022-07-26T13:11:32.875Z,0.75
2022-07-26T13:14:01.559Z,0.50
2022-07-26T13:16:28.157Z,0.50
2022-07-26T13:18:56.898Z,0.50
2022-07-26T13:21:26.257Z,0.43
2022-07-26T13:23:59.953Z,0.70
2022-07-26T13:26:29.179Z,0.50
2022-07-26T13:29:00.728Z,0.55
2022-07-26T13:31:29.548Z,0.60
2022-07-26T13:33:58.882Z,0.50
2022-07-26T13:36:27.797Z,0.60
2022-07-26T13:38:54.236Z,0.60
2022-07-26T13:41:20.666Z,0.52
2022-07-26T13:43:51.082Z,0.50
2022-07-26T13:46:23.687Z,0.60
2022-07-26T13:49:00.881Z,0.50
2022-07-26T13:51:49.000Z,0.70
2022-07-26T13:54:16.863Z,0.43
2022-07-26T13:56:46.265Z,0.70
2022-07-26T13:59:15.396Z,0.50
2022-07-26T14:01:43.002Z,0.50
2022-07-26T14:04:13.187Z,0.40
2022-07-26T14:06:42.913Z,0.40
2022-07-26T14:09:10.975Z,0.50
2022-07-26T14:11:38.497Z,0.70
2022-07-26T14:14:05.286Z,0.60
2022-07-26T14:16:34.454Z,0.60
2022-07-26T14:19:03.775Z,0.70
2022-07-26T14:21:38.697Z,0.60
2022-07-26T14:24:14.358Z,0.73
2022-07-26T14:26:45.129Z,0.50
2022-07-26T14:29:13.366Z,0.60
2022-07-26T14:31:44.818Z,0.50
2022-07-26T14:34:11.719Z,0.68
2022-07-26T14:36:38.429Z,0.50
2022-07-26T14:39:07.389Z,0.50
2022-07-26T14:41:36.180Z,0.60
2022-07-26T14:44:04.017Z,0.68
2022-07-26T14:46:30.512Z,0.68
2022-07-26T14:48:56.965Z,0.60
2022-07-26T14:51:28.240Z,0.40
2022-07-26T14:53:54.766Z,0.40
2022-07-26T14:56:21.583Z,0.40
2022-07-26T14:58:47.993Z,0.70
2022-07-26T15:01:14.465Z,0.55
2022-07-26T15:03:40.942Z,0.65
2022-07-26T15:06:09.290Z,0.65
2022-07-26T15:08:37.988Z,0.80
2022-07-26T15:11:05.907Z,0.60
2022-07-26T15:13:32.513Z,0.70
2022-07-26T15:16:01.443Z,0.68
2022-07-26T15:18:27.914Z,0.50
2022-07-26T15:20:54.346Z,0.55
2022-07-26T15:23:20.849Z,0.40
2022-07-26T15:25:49.610Z,0.40
2022-07-26T15:28:16.735Z,0.57
2022-07-26T15:30:45.664Z,0.40
2022-07-26T15:33:18.072Z,0.65
2022-07-26T15:35:44.487Z,0.70
2022-07-26T15:38:14.428Z,0.60
2022-07-26T15:40:40.855Z,0.50
2022-07-26T15:43:07.282Z,0.68
2022-07-26T15:45:37.363Z,0.50
2022-07-26T15:48:14.950Z,0.60
2022-07-26T15:50:44.286Z,0.60
2022-07-26T15:53:10.759Z,0.47
2022-07-26T15:55:37.316Z,0.60
2022-07-26T15:58:03.756Z,0.75
2022-07-26T16:00:32.729Z,0.60
2022-07-26T16:02:59.168Z,0.68
2022-07-26T16:05:25.630Z,0.47
2022-07-26T16:07:54.293Z,0.63
2022-07-26T16:10:23.073Z,0.50
2022-07-26T16:12:51.977Z,0.60
2022-07-26T16:15:20.955Z,0.63
2022-07-26T16:17:47.355Z,0.60
2022-07-26T16:20:15.709Z,0.75
2022-07-26T16:22:42.189Z,0.77
2022-07-26T16:25:09.095Z,0.70
2022-07-26T16:27:35.548Z,0.70
2022-07-26T16:30:02.024Z,0.60
2022-07-26T16:32:28.448Z,0.80
2022-07-26T16:34:54.840Z,0.60
2022-07-26T16:37:21.282Z,0.60
2022-07-26T16:39:49.949Z,0.55
2022-07-26T16:42:18.709Z,0.90
2022-07-26T16:44:45.156Z,0.60
2022-07-26T16:47:11.651Z,0.70
2022-07-26T16:49:40.680Z,0.65
2022-07-26T16:52:09.374Z,0.68
2022-07-26T16:54:35.867Z,0.80
2022-07-26T16:57:07.115Z,0.60
2022-07-26T16:59:36.108Z,0.70
2022-07-26T17:02:04.909Z,0.60
2022-07-26T17:04:31.404Z,0.90
2022-07-26T17:07:23.556Z,0.50
2022-07-26T17:09:48.234Z,0.70
2022-07-26T17:12:17.024Z,0.70
2022-07-26T17:14:43.521Z,0.68
2022-07-26T17:17:10.042Z,0.65
2022-07-26T17:19:38.776Z,0.57
2022-07-26T17:22:07.341Z,0.80
2022-07-26T17:24:36.318Z,0.43
2022-07-26T17:27:05.286Z,0.57
2022-07-26T17:29:31.713Z,0.50
2022-07-26T17:32:00.617Z,0.82
2022-07-26T17:34:29.365Z,0.43
2022-07-26T17:37:05.983Z,0.57
2022-07-26T17:39:51.683Z,0.90
2022-07-26T17:42:19.484Z,0.50
2022-07-26T17:44:45.935Z,0.50
2022-07-26T17:47:27.555Z,0.60
2022-07-26T17:50:09.021Z,0.70
2022-07-26T17:52:43.909Z,0.60
2022-07-26T17:55:12.638Z,0.60
2022-07-26T17:57:39.910Z,0.77
2022-07-26T18:00:07.107Z,0.95
2022-07-26T18:02:35.815Z,0.70
2022-07-26T18:05:03.225Z,1.00
2022-07-26T18:07:29.992Z,0.68
2022-07-26T18:09:57.326Z,1.08
2022-07-26T18:12:23.829Z,0.60
2022-07-26T18:14:50.230Z,0.63
2022-07-26T18:17:16.757Z,0.80
2022-07-26T18:19:45.776Z,0.60
2022-07-26T18:22:16.998Z,0.75
2022-07-26T18:24:43.501Z,0.52
2022-07-26T18:27:09.918Z,0.90
2022-07-26T18:29:41.610Z,0.60
2022-07-26T18:32:08.039Z,0.50
2022-07-26T18:34:34.474Z,0.70
2022-07-26T18:37:00.908Z,0.70
2022-07-26T18:39:32.815Z,0.70
2022-07-26T18:41:59.928Z,0.50
2022-07-26T18:44:26.380Z,0.60
2022-07-26T18:46:56.037Z,0.60
2022-07-26T18:49:23.103Z,0.60
2022-07-26T18:51:49.766Z,0.60
2022-07-26T18:54:17.186Z,0.68
2022-07-26T18:56:43.710Z,0.80
2022-07-26T18:59:12.998Z,0.60
2022-07-26T19:01:39.745Z,0.80
2022-07-26T19:04:07.261Z,0.75
2022-07-26T19:06:34.709Z,0.75
2022-07-26T19:09:01.259Z,0.60
2022-07-26T19:11:33.048Z,0.80
2022-07-26T19:14:04.042Z,0.88
2022-07-26T19:16:30.583Z,0.82
2022-07-26T19:18:57.727Z,0.90
2022-07-26T19:21:24.344Z,0.73
2022-07-26T19:23:53.430Z,0.90
2022-07-26T19:26:19.983Z,0.90
2022-07-26T19:28:46.425Z,1.25
2022-07-26T19:31:12.892Z,1.10
2022-07-26T19:33:41.670Z,1.15
2022-07-26T19:36:10.834Z,0.98
2022-07-26T19:38:37.250Z,0.70
2022-07-26T19:41:08.297Z,0.77
2022-07-26T19:43:39.492Z,0.80
2022-07-26T19:46:06.569Z,0.70
2022-07-26T19:48:33.142Z,0.52
2022-07-26T19:50:59.637Z,0.63
2022-07-26T19:53:30.894Z,0.60
2022-07-26T19:56:01.977Z,0.60
2022-07-26T19:58:32.463Z,0.47
2022-07-26T20:00:58.947Z,0.68
2022-07-26T20:03:27.994Z,0.60
2022-07-26T20:05:56.695Z,0.70
2022-07-26T20:08:23.163Z,0.70
2022-07-26T20:10:49.868Z,0.52
2022-07-26T20:13:18.863Z,0.73
2022-07-26T20:15:47.189Z,0.70
2022-07-26T20:18:13.676Z,0.52
2022-07-26T20:20:42.473Z,0.80
2022-07-26T20:23:10.902Z,0.75
2022-07-26T20:25:42.198Z,0.80
2022-07-26T20:28:08.620Z,0.70
2022-07-26T20:30:37.312Z,0.85
2022-07-26T20:33:06.414Z,0.80
2022-07-26T20:35:35.846Z,1.00
2022-07-26T20:38:02.447Z,0.73
2022-07-26T20:40:29.939Z,0.50
2022-07-26T20:42:56.769Z,0.60
2022-07-26T20:45:26.325Z,0.50
2022-07-26T20:47:54.602Z,0.75
2022-07-26T20:50:22.867Z,0.75
2022-07-26T20:52:54.372Z,0.90
2022-07-26T20:55:21.547Z,0.90
2022-07-26T20:57:50.250Z,0.80
2022-07-26T21:00:17.318Z,0.75
2022-07-26T21:02:43.878Z,0.80
2022-07-26T21:05:10.834Z,0.70
2022-07-26T21:07:57.178Z,0.98
2022-07-26T21:10:30.460Z,0.80
2022-07-26T21:13:00.104Z,1.00
2022-07-26T21:15:28.028Z,0.88
2022-07-26T21:17:54.733Z,0.88
2022-07-26T21:20:23.437Z,0.95
2022-07-26T21:22:50.054Z,0.57
2022-07-26T21:25:16.981Z,0.60
2022-07-26T21:27:43.777Z,0.70
2022-07-26T21:30:10.682Z,0.52
2022-07-26T21:32:39.471Z,0.60
2022-07-26T21:35:06.280Z,0.70
2022-07-26T21:37:35.264Z,0.73
2022-07-26T21:40:05.044Z,0.77
2022-07-26T21:42:32.081Z,1.00
2022-07-26T21:44:58.538Z,0.68
2022-07-26T21:47:25.069Z,0.65
2022-07-26T21:49:54.513Z,0.65
2022-07-26T21:52:20.939Z,0.75
2022-07-26T21:54:49.645Z,0.80
2022-07-26T21:57:16.144Z,0.80
2022-07-26T21:59:42.556Z,0.70
2022-07-26T22:02:09.098Z,0.60
2022-07-26T22:04:35.591Z,0.65
2022-07-26T22:07:06.911Z,0.60
2022-07-26T22:09:33.549Z,0.50
2022-07-26T22:12:02.283Z,0.65
2022-07-26T22:14:31.122Z,0.60
2022-07-26T22:16:57.652Z,0.70
2022-07-26T22:19:26.435Z,0.90
2022-07-26T22:21:52.854Z,0.77
2022-07-26T22:24:24.222Z,0.80
2022-07-26T22:26:52.788Z,0.68
2022-07-26T22:29:21.504Z,0.70
2022-07-26T22:31:52.693Z,0.90
2022-07-26T22:34:21.583Z,0.60
2022-07-26T22:36:48.040Z,0.77
2022-07-26T22:39:15.141Z,0.85
2022-07-26T22:42:05.102Z,1.00
2022-07-26T22:44:31.449Z,0.70
2022-07-26T22:47:00.250Z,0.80
2022-07-26T22:49:29.436Z,0.90
2022-07-26T22:51:55.912Z,0.80
2022-07-26T22:54:24.867Z,0.73
2022-07-26T22:56:53.682Z,1.02
2022-07-26T22:59:22.533Z,0.80
2022-07-26T23:01:48.936Z,1.15
2022-07-26T23:04:17.687Z,0.93
2022-07-26T23:06:45.598Z,0.90
2022-07-26T23:09:12.550Z,1.00
2022-07-26T23:11:39.204Z,0.80
2022-07-26T23:14:05.683Z,0.85
2022-07-26T23:16:34.500Z,0.70
2022-07-26T23:19:00.966Z,0.80
2022-07-26T23:21:31.947Z,0.90
2022-07-26T23:23:58.379Z,0.88
2022-07-26T23:26:29.385Z,0.90
2022-07-26T23:28:55.852Z,0.80
2022-07-26T23:31:24.905Z,1.00
2022-07-26T23:33:54.654Z,0.90
2022-07-26T23:36:25.942Z,0.70
2022-07-26T23:38:55.674Z,0.80
2022-07-26T23:41:22.502Z,1.15
2022-07-26T23:43:48.949Z,0.60
2022-07-26T23:46:15.432Z,0.90
2022-07-26T23:48:44.445Z,0.70
2022-07-26T23:51:10.950Z,0.63
2022-07-26T23:53:37.448Z,1.00
2022-07-26T23:56:04.018Z,0.90
2022-07-26T23:58:30.527Z,1.08
